sensor_id;sensor_type;location;lat;lon;timestamp;P1;P2;P0
69349;PMS5003;64554;43.452;4.934;2022-12-07T00:01:53;44.33;39.00;22.00
69349;PMS5003;64554;43.452;4.934;2022-12-07T00:04:20;42.25;37.00;22.25
69349;PMS5003;64554;43.452;4.934;2022-12-07T00:06:49;41.60;36.40;21.00
69349;PMS5003;64554;43.452;4.934;2022-12-07T00:09:17;40.80;35.40;20.40
69349;PMS5003;64554;43.452;4.934;2022-12-07T00:11:44;45.00;39.25;23.00
69349;PMS5003;64554;43.452;4.934;2022-12-07T00:14:12;50.60;38.60;22.00
69349;PMS5003;64554;43.452;4.934;2022-12-07T00:16:39;48.80;40.00;22.00
69349;PMS5003;64554;43.452;4.934;2022-12-07T00:19:05;39.80;34.40;22.00
69349;PMS5003;64554;43.452;4.934;2022-12-07T00:21:35;45.80;39.00;21.00
69349;PMS5003;64554;43.452;4.934;2022-12-07T00:24:02;48.00;37.50;20.25
69349;PMS5003;64554;43.452;4.934;2022-12-07T00:26:30;48.50;39.25;21.25
69349;PMS5003;64554;43.452;4.934;2022-12-07T00:28:58;45.00;39.25;22.00
69349;PMS5003;64554;43.452;4.934;2022-12-07T00:31:26;45.60;40.00;22.00
69349;PMS5003;64554;43.452;4.934;2022-12-07T00:33:53;44.25;39.00;21.00
69349;PMS5003;64554;43.452;4.934;2022-12-07T00:36:20;38.20;35.00;20.60
69349;PMS5003;64554;43.452;4.934;2022-12-07T00:38:52;43.80;37.40;22.00
69349;PMS5003;64554;43.452;4.934;2022-12-07T00:41:19;41.00;37.75;21.25
69349;PMS5003;64554;43.452;4.934;2022-12-07T00:43:47;44.00;39.00;19.50
69349;PMS5003;64554;43.452;4.934;2022-12-07T00:46:14;47.60;37.60;21.80
69349;PMS5003;64554;43.452;4.934;2022-12-07T00:48:41;40.60;37.40;20.40
69349;PMS5003;64554;43.452;4.934;2022-12-07T00:51:09;47.00;37.00;20.75
69349;PMS5003;64554;43.452;4.934;2022-12-07T00:53:35;39.20;35.60;21.00
69349;PMS5003;64554;43.452;4.934;2022-12-07T00:59:03;36.20;32.40;17.40
69349;PMS5003;64554;43.452;4.934;2022-12-07T01:01:36;40.60;35.80;17.80
69349;PMS5003;64554;43.452;4.934;2022-12-07T01:04:03;45.75;36.00;18.25
69349;PMS5003;64554;43.452;4.934;2022-12-07T01:06:30;39.50;34.75;20.00
69349;PMS5003;64554;43.452;4.934;2022-12-07T01:08:57;42.25;36.00;20.75
69349;PMS5003;64554;43.452;4.934;2022-12-07T01:11:25;45.25;36.75;20.75
69349;PMS5003;64554;43.452;4.934;2022-12-07T01:13:52;34.60;33.00;18.60
69349;PMS5003;64554;43.452;4.934;2022-12-07T01:16:19;33.00;33.00;20.00
69349;PMS5003;64554;43.452;4.934;2022-12-07T01:18:47;39.50;35.00;19.00
69349;PMS5003;64554;43.452;4.934;2022-12-07T01:21:16;37.00;33.50;19.00
69349;PMS5003;64554;43.452;4.934;2022-12-07T01:23:43;32.00;31.60;19.00
69349;PMS5003;64554;43.452;4.934;2022-12-07T01:26:11;39.50;35.75;17.00
69349;PMS5003;64554;43.452;4.934;2022-12-07T01:28:38;40.00;36.00;18.00
69349;PMS5003;64554;43.452;4.934;2022-12-07T01:31:14;37.60;34.40;16.40
69349;PMS5003;64554;43.452;4.934;2022-12-07T01:33:42;35.75;34.00;16.00
69349;PMS5003;64554;43.452;4.934;2022-12-07T01:38:35;33.60;30.60;18.20
69349;PMS5003;64554;43.452;4.934;2022-12-07T01:41:01;40.20;35.40;16.00
69349;PMS5003;64554;43.452;4.934;2022-12-07T01:43:29;38.60;29.60;17.00
69349;PMS5003;64554;43.452;4.934;2022-12-07T01:45:56;39.75;33.00;20.00
69349;PMS5003;64554;43.452;4.934;2022-12-07T01:48:32;42.00;37.00;20.67
69349;PMS5003;64554;43.452;4.934;2022-12-07T01:51:01;38.00;35.00;21.00
69349;PMS5003;64554;43.452;4.934;2022-12-07T01:53:29;39.00;35.60;19.20
69349;PMS5003;64554;43.452;4.934;2022-12-07T01:55:56;36.00;33.00;19.00
69349;PMS5003;64554;43.452;4.934;2022-12-07T01:58:24;45.60;36.00;19.40
69349;PMS5003;64554;43.452;4.934;2022-12-07T02:00:51;42.40;33.40;18.40
69349;PMS5003;64554;43.452;4.934;2022-12-07T02:05:44;33.40;32.60;19.00
69349;PMS5003;64554;43.452;4.934;2022-12-07T02:08:12;38.80;36.40;20.00
69349;PMS5003;64554;43.452;4.934;2022-12-07T02:10:39;29.00;28.00;16.00
69349;PMS5003;64554;43.452;4.934;2022-12-07T02:15:35;29.50;29.50;15.25
69349;PMS5003;64554;43.452;4.934;2022-12-07T02:18:16;31.50;29.75;20.25
69349;PMS5003;64554;43.452;4.934;2022-12-07T02:23:20;36.00;31.00;19.00
69349;PMS5003;64554;43.452;4.934;2022-12-07T02:28:32;36.80;33.00;15.60
69349;PMS5003;64554;43.452;4.934;2022-12-07T02:31:08;37.20;34.60;16.80
69349;PMS5003;64554;43.452;4.934;2022-12-07T02:33:40;36.33;33.33;17.33
69349;PMS5003;64554;43.452;4.934;2022-12-07T02:36:15;36.50;32.25;19.00
69349;PMS5003;64554;43.452;4.934;2022-12-07T02:38:48;39.00;33.50;18.00
69349;PMS5003;64554;43.452;4.934;2022-12-07T02:41:20;31.20;28.20;15.80
69349;PMS5003;64554;43.452;4.934;2022-12-07T02:43:55;30.00;30.00;16.40
69349;PMS5003;64554;43.452;4.934;2022-12-07T02:46:25;33.40;33.00;18.40
69349;PMS5003;64554;43.452;4.934;2022-12-07T02:48:53;29.50;27.50;15.50
69349;PMS5003;64554;43.452;4.934;2022-12-07T02:51:21;37.00;33.80;14.00
69349;PMS5003;64554;43.452;4.934;2022-12-07T02:53:48;34.25;32.25;18.00
69349;PMS5003;64554;43.452;4.934;2022-12-07T03:04:22;31.60;30.60;14.60
69349;PMS5003;64554;43.452;4.934;2022-12-07T03:06:54;30.75;28.75;15.50
69349;PMS5003;64554;43.452;4.934;2022-12-07T03:09:27;38.60;32.60;17.60
69349;PMS5003;64554;43.452;4.934;2022-12-07T03:12:01;33.00;31.50;14.50
69349;PMS5003;64554;43.452;4.934;2022-12-07T03:14:31;38.50;33.25;15.00
69349;PMS5003;64554;43.452;4.934;2022-12-07T03:19:32;36.80;34.20;15.00
69349;PMS5003;64554;43.452;4.934;2022-12-07T03:22:01;35.60;33.40;18.00
69349;PMS5003;64554;43.452;4.934;2022-12-07T03:24:33;30.00;28.00;15.00
69349;PMS5003;64554;43.452;4.934;2022-12-07T03:27:13;30.80;26.60;13.60
69349;PMS5003;64554;43.452;4.934;2022-12-07T03:29:43;29.80;26.20;15.20
69349;PMS5003;64554;43.452;4.934;2022-12-07T03:32:14;23.40;22.60;17.20
69349;PMS5003;64554;43.452;4.934;2022-12-07T03:34:47;35.00;32.25;17.75
69349;PMS5003;64554;43.452;4.934;2022-12-07T03:37:38;30.00;29.50;15.00
69349;PMS5003;64554;43.452;4.934;2022-12-07T03:42:32;30.80;29.80;15.80
69349;PMS5003;64554;43.452;4.934;2022-12-07T03:44:59;30.00;28.00;17.00
69349;PMS5003;64554;43.452;4.934;2022-12-07T03:47:34;28.00;25.50;14.00
69349;PMS5003;64554;43.452;4.934;2022-12-07T03:50:48;31.75;31.75;14.50
69349;PMS5003;64554;43.452;4.934;2022-12-07T03:53:02;25.60;25.60;14.60
69349;PMS5003;64554;43.452;4.934;2022-12-07T03:55:32;40.75;35.75;18.00
69349;PMS5003;64554;43.452;4.934;2022-12-07T03:58:06;29.80;24.40;15.00
69349;PMS5003;64554;43.452;4.934;2022-12-07T04:00:33;28.20;26.80;12.40
69349;PMS5003;64554;43.452;4.934;2022-12-07T04:03:00;29.00;27.00;14.75
69349;PMS5003;64554;43.452;4.934;2022-12-07T04:05:27;34.80;32.20;15.00
69349;PMS5003;64554;43.452;4.934;2022-12-07T04:07:54;26.40;24.00;14.20
69349;PMS5003;64554;43.452;4.934;2022-12-07T04:10:20;25.80;25.80;14.00
69349;PMS5003;64554;43.452;4.934;2022-12-07T04:12:47;26.75;22.00;12.25
69349;PMS5003;64554;43.452;4.934;2022-12-07T04:15:13;31.75;31.00;17.00
69349;PMS5003;64554;43.452;4.934;2022-12-07T04:17:40;30.80;29.80;19.40
69349;PMS5003;64554;43.452;4.934;2022-12-07T04:20:07;36.00;33.00;19.00
69349;PMS5003;64554;43.452;4.934;2022-12-07T04:22:33;30.60;29.60;15.40
69349;PMS5003;64554;43.452;4.934;2022-12-07T04:25:00;28.40;28.40;14.00
69349;PMS5003;64554;43.452;4.934;2022-12-07T04:27:27;25.00;24.25;13.25
69349;PMS5003;64554;43.452;4.934;2022-12-07T04:29:53;28.60;27.60;14.60
69349;PMS5003;64554;43.452;4.934;2022-12-07T04:32:22;31.00;31.00;14.20
69349;PMS5003;64554;43.452;4.934;2022-12-07T04:34:48;30.50;30.25;15.00
69349;PMS5003;64554;43.452;4.934;2022-12-07T04:37:20;30.00;24.60;15.00
69349;PMS5003;64554;43.452;4.934;2022-12-07T04:39:47;27.80;25.60;14.00
69349;PMS5003;64554;43.452;4.934;2022-12-07T04:42:14;30.80;24.40;14.00
69349;PMS5003;64554;43.452;4.934;2022-12-07T04:44:40;28.60;28.00;14.00
69349;PMS5003;64554;43.452;4.934;2022-12-07T04:47:06;27.80;24.00;12.80
69349;PMS5003;64554;43.452;4.934;2022-12-07T04:49:33;28.00;24.00;14.00
69349;PMS5003;64554;43.452;4.934;2022-12-07T04:52:00;28.00;24.40;14.00
69349;PMS5003;64554;43.452;4.934;2022-12-07T04:54:27;21.80;20.40;13.00
69349;PMS5003;64554;43.452;4.934;2022-12-07T04:56:53;25.75;22.50;14.00
69349;PMS5003;64554;43.452;4.934;2022-12-07T04:59:20;28.00;26.50;14.00
69349;PMS5003;64554;43.452;4.934;2022-12-07T05:01:46;25.00;22.50;12.00
69349;PMS5003;64554;43.452;4.934;2022-12-07T05:04:13;27.20;25.80;13.00
69349;PMS5003;64554;43.452;4.934;2022-12-07T05:06:39;31.50;29.75;16.00
69349;PMS5003;64554;43.452;4.934;2022-12-07T05:09:06;23.00;22.00;14.00
69349;PMS5003;64554;43.452;4.934;2022-12-07T05:11:32;27.50;27.25;15.00
69349;PMS5003;64554;43.452;4.934;2022-12-07T05:14:12;28.00;27.50;14.00
69349;PMS5003;64554;43.452;4.934;2022-12-07T05:16:39;31.60;27.60;14.40
69349;PMS5003;64554;43.452;4.934;2022-12-07T05:19:06;25.00;25.00;14.00
69349;PMS5003;64554;43.452;4.934;2022-12-07T05:21:33;24.00;22.00;12.00
69349;PMS5003;64554;43.452;4.934;2022-12-07T05:24:00;30.40;30.40;14.00
69349;PMS5003;64554;43.452;4.934;2022-12-07T05:26:27;29.40;25.20;15.40
69349;PMS5003;64554;43.452;4.934;2022-12-07T05:28:54;31.00;28.25;15.00
69349;PMS5003;64554;43.452;4.934;2022-12-07T05:31:21;27.00;25.60;14.00
69349;PMS5003;64554;43.452;4.934;2022-12-07T05:33:48;24.75;23.75;13.75
69349;PMS5003;64554;43.452;4.934;2022-12-07T05:36:14;35.00;31.00;12.80
69349;PMS5003;64554;43.452;4.934;2022-12-07T05:38:41;29.00;24.25;16.00
69349;PMS5003;64554;43.452;4.934;2022-12-07T05:41:08;37.75;33.00;18.00
69349;PMS5003;64554;43.452;4.934;2022-12-07T05:43:55;37.20;33.80;16.80
69349;PMS5003;64554;43.452;4.934;2022-12-07T05:46:22;27.75;26.50;14.00
69349;PMS5003;64554;43.452;4.934;2022-12-07T05:48:48;32.20;30.00;15.20
69349;PMS5003;64554;43.452;4.934;2022-12-07T05:51:15;75.00;58.60;37.00
69349;PMS5003;64554;43.452;4.934;2022-12-07T05:53:41;48.20;39.40;25.00
69349;PMS5003;64554;43.452;4.934;2022-12-07T05:56:07;47.80;40.00;25.00
69349;PMS5003;64554;43.452;4.934;2022-12-07T05:58:34;40.75;35.25;20.00
69349;PMS5003;64554;43.452;4.934;2022-12-07T06:01:19;48.50;41.00;24.00
69349;PMS5003;64554;43.452;4.934;2022-12-07T06:03:45;73.25;57.00;34.00
69349;PMS5003;64554;43.452;4.934;2022-12-07T06:06:12;38.00;33.25;21.00
69349;PMS5003;64554;43.452;4.934;2022-12-07T06:08:38;38.25;33.25;18.00
69349;PMS5003;64554;43.452;4.934;2022-12-07T06:11:05;38.00;32.20;18.40
69349;PMS5003;64554;43.452;4.934;2022-12-07T06:13:50;44.33;37.33;21.00
69349;PMS5003;64554;43.452;4.934;2022-12-07T06:16:17;35.00;34.00;17.50
69349;PMS5003;64554;43.452;4.934;2022-12-07T06:18:43;36.75;31.75;15.25
69349;PMS5003;64554;43.452;4.934;2022-12-07T06:21:10;40.50;36.00;22.00
69349;PMS5003;64554;43.452;4.934;2022-12-07T06:23:36;38.00;31.40;19.60
69349;PMS5003;64554;43.452;4.934;2022-12-07T06:26:02;30.50;29.00;16.00
69349;PMS5003;64554;43.452;4.934;2022-12-07T06:28:29;50.75;40.00;23.50
69349;PMS5003;64554;43.452;4.934;2022-12-07T06:30:59;43.00;38.00;23.50
69349;PMS5003;64554;43.452;4.934;2022-12-07T06:33:26;57.75;46.50;28.75
69349;PMS5003;64554;43.452;4.934;2022-12-07T06:35:52;73.25;58.00;35.00
69349;PMS5003;64554;43.452;4.934;2022-12-07T06:38:19;74.00;58.00;35.50
69349;PMS5003;64554;43.452;4.934;2022-12-07T06:40:46;70.00;56.75;36.50
69349;PMS5003;64554;43.452;4.934;2022-12-07T06:43:12;56.00;46.75;29.00
69349;PMS5003;64554;43.452;4.934;2022-12-07T06:45:40;49.60;41.60;25.00
69349;PMS5003;64554;43.452;4.934;2022-12-07T06:48:06;46.00;38.75;24.00
69349;PMS5003;64554;43.452;4.934;2022-12-07T06:50:33;55.20;43.00;28.00
69349;PMS5003;64554;43.452;4.934;2022-12-07T06:52:59;50.20;42.00;25.00
69349;PMS5003;64554;43.452;4.934;2022-12-07T06:55:26;62.25;51.75;32.75
69349;PMS5003;64554;43.452;4.934;2022-12-07T06:57:52;60.00;48.50;29.00
69349;PMS5003;64554;43.452;4.934;2022-12-07T07:00:19;34.00;33.20;20.00
69349;PMS5003;64554;43.452;4.934;2022-12-07T07:02:47;37.20;34.00;21.00
69349;PMS5003;64554;43.452;4.934;2022-12-07T07:05:14;47.75;39.25;22.00
69349;PMS5003;64554;43.452;4.934;2022-12-07T07:07:42;46.25;38.75;19.75
69349;PMS5003;64554;43.452;4.934;2022-12-07T07:10:29;50.20;40.60;21.40
69349;PMS5003;64554;43.452;4.934;2022-12-07T07:12:55;40.50;37.25;22.75
69349;PMS5003;64554;43.452;4.934;2022-12-07T07:15:23;52.00;40.50;23.00
69349;PMS5003;64554;43.452;4.934;2022-12-07T07:17:49;58.25;45.25;29.25
69349;PMS5003;64554;43.452;4.934;2022-12-07T07:20:16;55.50;45.50;29.00
69349;PMS5003;64554;43.452;4.934;2022-12-07T07:22:42;60.60;49.20;30.00
69349;PMS5003;64554;43.452;4.934;2022-12-07T07:25:09;58.50;46.50;26.00
69349;PMS5003;64554;43.452;4.934;2022-12-07T07:27:35;52.75;41.00;24.00
69349;PMS5003;64554;43.452;4.934;2022-12-07T07:30:02;50.75;41.50;25.00
69349;PMS5003;64554;43.452;4.934;2022-12-07T07:32:29;54.25;43.75;24.75
69349;PMS5003;64554;43.452;4.934;2022-12-07T07:34:56;52.00;43.00;26.00
69349;PMS5003;64554;43.452;4.934;2022-12-07T07:37:22;59.00;49.00;29.00
69349;PMS5003;64554;43.452;4.934;2022-12-07T07:39:49;42.25;34.75;22.00
69349;PMS5003;64554;43.452;4.934;2022-12-07T07:42:15;43.00;35.75;20.00
69349;PMS5003;64554;43.452;4.934;2022-12-07T07:44:42;44.75;36.00;24.00
69349;PMS5003;64554;43.452;4.934;2022-12-07T07:47:08;49.60;41.40;24.80
69349;PMS5003;64554;43.452;4.934;2022-12-07T07:49:35;63.20;50.40;31.40
69349;PMS5003;64554;43.452;4.934;2022-12-07T07:52:01;56.60;46.60;30.20
69349;PMS5003;64554;43.452;4.934;2022-12-07T07:54:28;54.20;45.40;29.20
69349;PMS5003;64554;43.452;4.934;2022-12-07T07:56:55;67.00;54.50;36.00
69349;PMS5003;64554;43.452;4.934;2022-12-07T07:59:21;58.00;48.00;27.50
69349;PMS5003;64554;43.452;4.934;2022-12-07T08:01:47;67.25;53.00;34.00
69349;PMS5003;64554;43.452;4.934;2022-12-07T08:04:14;77.60;66.20;38.00
69349;PMS5003;64554;43.452;4.934;2022-12-07T08:06:41;87.00;80.00;52.75
69349;PMS5003;64554;43.452;4.934;2022-12-07T08:09:08;73.00;60.25;38.00
69349;PMS5003;64554;43.452;4.934;2022-12-07T08:11:35;81.25;66.50;42.75
69349;PMS5003;64554;43.452;4.934;2022-12-07T08:14:02;63.40;51.40;34.20
69349;PMS5003;64554;43.452;4.934;2022-12-07T08:16:29;66.00;53.50;35.75
69349;PMS5003;64554;43.452;4.934;2022-12-07T08:18:56;53.00;44.25;27.50
69349;PMS5003;64554;43.452;4.934;2022-12-07T08:21:22;51.00;42.75;25.50
69349;PMS5003;64554;43.452;4.934;2022-12-07T08:23:49;57.60;47.60;31.00
69349;PMS5003;64554;43.452;4.934;2022-12-07T08:26:15;49.80;41.80;25.60
69349;PMS5003;64554;43.452;4.934;2022-12-07T08:28:42;42.60;38.00;24.00
69349;PMS5003;64554;43.452;4.934;2022-12-07T08:31:13;49.60;40.00;27.00
69349;PMS5003;64554;43.452;4.934;2022-12-07T08:33:40;53.00;44.00;30.00
69349;PMS5003;64554;43.452;4.934;2022-12-07T08:36:08;55.40;46.00;31.60
69349;PMS5003;64554;43.452;4.934;2022-12-07T08:38:35;42.20;36.00;23.60
69349;PMS5003;64554;43.452;4.934;2022-12-07T08:41:02;52.00;43.67;28.00
69349;PMS5003;64554;43.452;4.934;2022-12-07T08:43:29;45.40;40.00;26.60
69349;PMS5003;64554;43.452;4.934;2022-12-07T08:46:13;44.00;38.00;26.80
69349;PMS5003;64554;43.452;4.934;2022-12-07T08:51:43;33.50;31.00;20.00
69349;PMS5003;64554;43.452;4.934;2022-12-07T08:54:11;31.00;28.50;17.00
69349;PMS5003;64554;43.452;4.934;2022-12-07T08:56:39;40.40;35.00;21.00
69349;PMS5003;64554;43.452;4.934;2022-12-07T08:59:06;34.20;30.60;18.00
69349;PMS5003;64554;43.452;4.934;2022-12-07T09:01:33;29.40;27.80;14.20
69349;PMS5003;64554;43.452;4.934;2022-12-07T09:03:59;25.80;25.40;15.00
69349;PMS5003;64554;43.452;4.934;2022-12-07T09:06:26;27.20;26.20;13.60
69349;PMS5003;64554;43.452;4.934;2022-12-07T09:08:54;15.00;13.60;9.00
69349;PMS5003;64554;43.452;4.934;2022-12-07T09:11:22;24.20;24.20;14.60
69349;PMS5003;64554;43.452;4.934;2022-12-07T09:13:54;29.20;28.60;20.40
69349;PMS5003;64554;43.452;4.934;2022-12-07T09:16:20;18.00;18.00;12.40
69349;PMS5003;64554;43.452;4.934;2022-12-07T09:18:47;16.60;16.60;11.00
69349;PMS5003;64554;43.452;4.934;2022-12-07T09:21:13;15.80;13.80;9.00
69349;PMS5003;64554;43.452;4.934;2022-12-07T09:23:41;36.50;33.25;24.00
69349;PMS5003;64554;43.452;4.934;2022-12-07T09:26:07;39.00;33.60;23.40
69349;PMS5003;64554;43.452;4.934;2022-12-07T09:28:36;42.60;36.20;22.00
69349;PMS5003;64554;43.452;4.934;2022-12-07T09:31:02;24.40;22.00;15.00
69349;PMS5003;64554;43.452;4.934;2022-12-07T09:33:56;37.20;33.00;21.00
69349;PMS5003;64554;43.452;4.934;2022-12-07T09:36:23;42.50;36.75;22.50
69349;PMS5003;64554;43.452;4.934;2022-12-07T09:38:50;45.60;38.40;23.00
69349;PMS5003;64554;43.452;4.934;2022-12-07T09:41:16;28.60;27.00;19.40
69349;PMS5003;64554;43.452;4.934;2022-12-07T09:43:43;29.00;28.50;17.00
69349;PMS5003;64554;43.452;4.934;2022-12-07T09:46:14;34.00;29.75;18.75
69349;PMS5003;64554;43.452;4.934;2022-12-07T09:48:41;26.80;24.00;15.00
69349;PMS5003;64554;43.452;4.934;2022-12-07T09:51:19;15.00;14.00;9.40
69349;PMS5003;64554;43.452;4.934;2022-12-07T09:53:50;24.60;23.00;15.60
69349;PMS5003;64554;43.452;4.934;2022-12-07T09:56:17;18.00;18.00;13.00
69349;PMS5003;64554;43.452;4.934;2022-12-07T09:58:44;28.00;26.00;15.25
69349;PMS5003;64554;43.452;4.934;2022-12-07T10:01:18;12.00;12.00;7.00
69349;PMS5003;64554;43.452;4.934;2022-12-07T10:03:50;23.00;20.50;12.00
69349;PMS5003;64554;43.452;4.934;2022-12-07T10:06:17;18.25;17.50;10.25
69349;PMS5003;64554;43.452;4.934;2022-12-07T10:08:43;21.80;18.60;10.00
69349;PMS5003;64554;43.452;4.934;2022-12-07T10:11:10;15.00;14.00;9.00
69349;PMS5003;64554;43.452;4.934;2022-12-07T10:13:42;21.00;21.00;14.00
69349;PMS5003;64554;43.452;4.934;2022-12-07T10:18:51;16.40;16.40;9.40
69349;PMS5003;64554;43.452;4.934;2022-12-07T10:21:18;11.80;10.00;7.80
69349;PMS5003;64554;43.452;4.934;2022-12-07T10:24:01;19.00;13.00;8.20
69349;PMS5003;64554;43.452;4.934;2022-12-07T10:28:56;15.75;13.75;9.75
69349;PMS5003;64554;43.452;4.934;2022-12-07T10:31:24;11.80;10.60;7.80
69349;PMS5003;64554;43.452;4.934;2022-12-07T10:33:52;14.00;13.00;8.60
69349;PMS5003;64554;43.452;4.934;2022-12-07T10:36:21;19.80;19.60;11.00
69349;PMS5003;64554;43.452;4.934;2022-12-07T10:38:49;15.00;11.50;8.00
69349;PMS5003;64554;43.452;4.934;2022-12-07T10:41:16;13.60;13.60;8.00
69349;PMS5003;64554;43.452;4.934;2022-12-07T10:43:46;18.00;16.75;10.00
69349;PMS5003;64554;43.452;4.934;2022-12-07T10:51:51;13.00;13.00;8.00
69349;PMS5003;64554;43.452;4.934;2022-12-07T10:54:23;19.00;19.00;12.75
69349;PMS5003;64554;43.452;4.934;2022-12-07T10:57:17;22.50;22.50;15.25
69349;PMS5003;64554;43.452;4.934;2022-12-07T10:59:53;24.60;22.20;12.00
69349;PMS5003;64554;43.452;4.934;2022-12-07T11:02:26;25.75;23.25;12.75
69349;PMS5003;64554;43.452;4.934;2022-12-07T11:07:59;22.00;20.00;11.00
69349;PMS5003;64554;43.452;4.934;2022-12-07T11:26:00;28.50;26.00;15.00
69349;PMS5003;64554;43.452;4.934;2022-12-07T11:31:22;20.80;20.40;13.40
69349;PMS5003;64554;43.452;4.934;2022-12-07T11:33:57;15.40;15.40;10.40
69349;PMS5003;64554;43.452;4.934;2022-12-07T11:36:43;21.40;20.40;9.40
69349;PMS5003;64554;43.452;4.934;2022-12-07T11:39:15;11.00;11.00;7.60
69349;PMS5003;64554;43.452;4.934;2022-12-07T11:41:43;13.00;13.00;9.50
69349;PMS5003;64554;43.452;4.934;2022-12-07T11:49:16;20.00;17.20;11.00
69349;PMS5003;64554;43.452;4.934;2022-12-07T11:51:46;14.60;13.00;8.00
69349;PMS5003;64554;43.452;4.934;2022-12-07T11:54:16;17.00;15.20;10.80
69349;PMS5003;64554;43.452;4.934;2022-12-07T11:56:44;18.20;18.20;11.20
69349;PMS5003;64554;43.452;4.934;2022-12-07T11:59:16;26.20;26.20;15.60
69349;PMS5003;64554;43.452;4.934;2022-12-07T12:02:27;15.40;15.40;11.00
69349;PMS5003;64554;43.452;4.934;2022-12-07T12:04:47;22.67;21.33;13.33
69349;PMS5003;64554;43.452;4.934;2022-12-07T12:07:17;15.75;15.75;11.00
69349;PMS5003;64554;43.452;4.934;2022-12-07T12:10:06;17.00;15.25;7.50
69349;PMS5003;64554;43.452;4.934;2022-12-07T12:18:30;23.50;23.25;14.00
69349;PMS5003;64554;43.452;4.934;2022-12-07T12:20:55;16.40;16.40;11.00
69349;PMS5003;64554;43.452;4.934;2022-12-07T12:23:24;19.60;17.60;11.00
69349;PMS5003;64554;43.452;4.934;2022-12-07T12:25:59;15.00;14.00;10.00
69349;PMS5003;64554;43.452;4.934;2022-12-07T12:28:30;24.25;24.25;15.75
69349;PMS5003;64554;43.452;4.934;2022-12-07T12:31:09;24.75;23.25;13.25
69349;PMS5003;64554;43.452;4.934;2022-12-07T12:33:37;13.20;13.20;9.00
69349;PMS5003;64554;43.452;4.934;2022-12-07T12:46:54;12.00;12.00;7.00
69349;PMS5003;64554;43.452;4.934;2022-12-07T13:04:34;16.40;16.40;11.00
69349;PMS5003;64554;43.452;4.934;2022-12-07T13:07:03;17.20;17.20;10.00
69349;PMS5003;64554;43.452;4.934;2022-12-07T13:09:31;15.40;15.40;10.60
69349;PMS5003;64554;43.452;4.934;2022-12-07T13:12:03;22.20;20.20;10.60
69349;PMS5003;64554;43.452;4.934;2022-12-07T13:17:09;9.75;9.50;5.50
69349;PMS5003;64554;43.452;4.934;2022-12-07T13:25:10;13.20;12.60;9.00
69349;PMS5003;64554;43.452;4.934;2022-12-07T13:27:37;15.00;15.00;10.00
69349;PMS5003;64554;43.452;4.934;2022-12-07T13:30:19;17.50;16.00;10.50
69349;PMS5003;64554;43.452;4.934;2022-12-07T13:32:56;16.00;15.20;9.20
69349;PMS5003;64554;43.452;4.934;2022-12-07T13:35:27;18.50;17.25;12.50
69349;PMS5003;64554;43.452;4.934;2022-12-07T13:37:54;11.80;11.80;8.20
69349;PMS5003;64554;43.452;4.934;2022-12-07T13:40:21;10.00;10.00;7.00
69349;PMS5003;64554;43.452;4.934;2022-12-07T13:42:56;13.00;13.00;8.00
69349;PMS5003;64554;43.452;4.934;2022-12-07T13:48:16;15.00;15.00;9.75
69349;PMS5003;64554;43.452;4.934;2022-12-07T13:50:52;13.60;13.60;7.60
69349;PMS5003;64554;43.452;4.934;2022-12-07T13:53:18;46.75;37.50;20.25
69349;PMS5003;64554;43.452;4.934;2022-12-07T13:55:45;61.00;49.25;28.25
69349;PMS5003;64554;43.452;4.934;2022-12-07T13:58:19;30.00;29.00;16.00
69349;PMS5003;64554;43.452;4.934;2022-12-07T14:00:46;17.50;17.50;13.50
69349;PMS5003;64554;43.452;4.934;2022-12-07T14:05:40;16.40;15.00;11.00
69349;PMS5003;64554;43.452;4.934;2022-12-07T14:10:40;29.00;27.00;13.60
69349;PMS5003;64554;43.452;4.934;2022-12-07T14:15:52;39.50;33.50;21.75
69349;PMS5003;64554;43.452;4.934;2022-12-07T14:18:53;20.40;18.00;12.40
69349;PMS5003;64554;43.452;4.934;2022-12-07T14:23:39;13.60;13.60;10.00
69349;PMS5003;64554;43.452;4.934;2022-12-07T14:26:16;15.20;14.20;8.00
69349;PMS5003;64554;43.452;4.934;2022-12-07T14:28:45;20.00;18.00;13.00
69349;PMS5003;64554;43.452;4.934;2022-12-07T14:31:12;19.25;19.25;12.00
69349;PMS5003;64554;43.452;4.934;2022-12-07T14:33:47;13.00;13.00;10.00
69349;PMS5003;64554;43.452;4.934;2022-12-07T14:36:14;21.00;20.40;10.80
69349;PMS5003;64554;43.452;4.934;2022-12-07T14:38:41;12.25;12.25;9.00
69349;PMS5003;64554;43.452;4.934;2022-12-07T14:41:11;13.80;12.80;8.80
69349;PMS5003;64554;43.452;4.934;2022-12-07T14:43:58;18.50;16.50;10.50
69349;PMS5003;64554;43.452;4.934;2022-12-07T14:46:44;16.00;16.00;8.60
69349;PMS5003;64554;43.452;4.934;2022-12-07T14:49:12;15.00;14.00;8.00
69349;PMS5003;64554;43.452;4.934;2022-12-07T14:51:58;117.00;115.50;86.75
69349;PMS5003;64554;43.452;4.934;2022-12-07T14:54:45;66.25;55.25;36.75
69349;PMS5003;64554;43.452;4.934;2022-12-07T14:57:11;36.20;31.80;20.80
69349;PMS5003;64554;43.452;4.934;2022-12-07T14:59:37;21.40;19.00;13.00
69349;PMS5003;64554;43.452;4.934;2022-12-07T15:02:11;27.80;23.80;15.40
69349;PMS5003;64554;43.452;4.934;2022-12-07T15:04:38;40.25;32.75;21.75
69349;PMS5003;64554;43.452;4.934;2022-12-07T15:07:05;17.00;17.00;10.00
69349;PMS5003;64554;43.452;4.934;2022-12-07T15:09:32;16.00;13.00;8.00
69349;PMS5003;64554;43.452;4.934;2022-12-07T15:11:58;20.00;19.00;12.50
69349;PMS5003;64554;43.452;4.934;2022-12-07T15:14:25;23.40;19.40;11.00
69349;PMS5003;64554;43.452;4.934;2022-12-07T15:16:51;35.50;33.50;20.00
69349;PMS5003;64554;43.452;4.934;2022-12-07T15:19:33;29.50;29.50;17.50
69349;PMS5003;64554;43.452;4.934;2022-12-07T15:22:00;57.60;44.60;27.00
69349;PMS5003;64554;43.452;4.934;2022-12-07T15:24:26;28.25;24.25;13.00
69349;PMS5003;64554;43.452;4.934;2022-12-07T15:26:53;32.00;30.25;20.00
69349;PMS5003;64554;43.452;4.934;2022-12-07T15:29:19;29.00;25.40;16.00
69349;PMS5003;64554;43.452;4.934;2022-12-07T15:31:52;36.60;33.00;20.00
69349;PMS5003;64554;43.452;4.934;2022-12-07T15:34:26;44.75;38.75;22.75
69349;PMS5003;64554;43.452;4.934;2022-12-07T15:37:03;28.00;26.00;16.00
69349;PMS5003;64554;43.452;4.934;2022-12-07T15:39:29;30.20;27.40;17.20
69349;PMS5003;64554;43.452;4.934;2022-12-07T15:41:56;33.25;30.75;19.00
69349;PMS5003;64554;43.452;4.934;2022-12-07T15:44:22;32.50;30.50;18.50
69349;PMS5003;64554;43.452;4.934;2022-12-07T15:47:08;50.75;42.50;27.50
69349;PMS5003;64554;43.452;4.934;2022-12-07T15:49:34;50.00;41.75;26.00
69349;PMS5003;64554;43.452;4.934;2022-12-07T15:52:01;118.20;115.40;84.60
69349;PMS5003;64554;43.452;4.934;2022-12-07T15:54:28;64.25;53.50;36.00
69349;PMS5003;64554;43.452;4.934;2022-12-07T15:56:55;31.75;29.75;18.00
69349;PMS5003;64554;43.452;4.934;2022-12-07T15:59:21;39.33;34.00;20.67
69349;PMS5003;64554;43.452;4.934;2022-12-07T16:01:48;37.50;33.00;21.00